To NAV CANADA Home Page Login to a new session Search on AWWS site Feedback and Comments Disclaimer Vers la page française équivalente Tips FAQ What's new on the site To the Forecasts and Observations / NOTAM section To "File a Flight Plan" website Publications and other links Update of the User's profile FIC Telephone Numbers My Weather Data Folder Route Weather Data Regional Weather Data Local Weather Data To the Forecasts and Observations / NOTAM section
Request Generated 11/27/2015 at 10:00:01 UTC . Weather information available at that time is displayed.



METAR CYKY 270900Z 21012KT 15SM FEW260 M10/M14 A3025 RMK CI2 SLP295=
METAR CYKY 270800Z 19011KT 15SM FEW260 M12/M16 A3026 RMK CI1 SLP300=
METAR CYKY 270700Z 19008KT 15SM SKC M13/M17 A3028 RMK SLP310=

CYKY - No TAF is issued for this station

Your time UTC time
Weather data provided by Environment Canada and NAV CANADA